PGUA Airport (Andersen Afb) Information

FAA: UAM - ICAO: PGUA

PGUA Airport Location

State Guam
County Guam
City Yigo
PGUA Airport is 0 miles north of Yigo, GU.
Latitude 13-35-01.9830N
Longitude 144-55-48.2050E
Elevation 618ft

PGUA Airport METARs

METAR PGUA 020155Z AUTO 12017KT 8SM FEW005 FEW010 SCT014 BKN026 27/24 A2990 RMK AO2 RAB32E41 SLP115 P0001 T02660244
Altimeter 29.90"
Temperature 26.6°C (79.9°F)
Wind 120° at 17KT
Clouds few at 500ft few at 1,000ft scattered at 1,400ft broken at 2,600ft
Visibility 8.0mi
Time observed: 2023-02-02T01:55:00Z

PGUA Airport Details

Status Operational
Activation N/A
Ownership Military - Air Force
Usage Private
Chart GNC 7
ATC on-site Yes
Beacon schedule sunset-sunrise
Beacon color clear green

PGUA Airport Contacts

Owner USAF
Owner address 3 AD, ANDERSEN AFB, GUAM 69912
Owner phone N/A
Manager ROBERT WALDRON
Manager address PO BOX 892, WILLOW, AK 99688
Manager phone N/A

PGUA Airport (Andersen Afb) Radio Frequencies

PGUA (Airport) Radio Frequencies

UNICOM N/A
Common traffic advisory frequency (CTAF) N/A